Time;durP1;ratioP1;P1;durP2;ratioP2;P2;SDS_P1;SDS_P2;PMS_P1;PMS_P2;Temp;Humidity;BMP_temperature;BMP_pressure;BME280_temperature;BME280_humidity;BME280_pressure;Samples;Min_cycle;Max_cycle;Signal;HPM_P1;HPM_P2
2022/12/12 00:00:45;;;;;;;44.63;19.53;;;0.90;99.90;;;;;;5011724;28;20034;-58
2022/12/12 00:03:11;;;;;;;45.27;18.73;;;0.90;99.90;;;;;;5011727;28;20358;-58
2022/12/12 00:05:38;;;;;;;46.43;19.27;;;0.90;99.90;;;;;;5011157;28;20452;-58
2022/12/12 00:08:04;;;;;;;45.63;19.90;;;1.00;99.90;;;;;;5011786;28;20030;-58
2022/12/12 00:10:30;;;;;;;47.20;20.47;;;0.90;99.90;;;;;;5011423;28;20104;-57
2022/12/12 00:12:55;;;;;;;43.73;20.17;;;1.00;99.90;;;;;;5011815;28;20038;-58
2022/12/12 00:15:22;;;;;;;47.50;20.83;;;0.90;99.90;;;;;;5010316;28;20343;-58
2022/12/12 00:17:47;;;;;;;51.83;21.03;;;0.90;99.90;;;;;;5011026;28;20560;-58
2022/12/12 00:20:13;;;;;;;46.33;19.73;;;0.90;99.90;;;;;;5010869;28;20030;-57
2022/12/12 00:22:39;;;;;;;48.77;21.23;;;0.80;99.90;;;;;;5011634;28;20034;-57
2022/12/12 00:25:07;;;;;;;46.90;20.03;;;0.80;99.90;;;;;;5011352;28;20033;-57
2022/12/12 00:27:33;;;;;;;47.90;19.43;;;0.80;99.90;;;;;;5011530;28;20038;-57
2022/12/12 00:29:59;;;;;;;47.03;20.27;;;0.90;99.90;;;;;;5011077;28;20034;-57
2022/12/12 00:32:24;;;;;;;45.30;18.87;;;0.90;99.90;;;;;;5011095;28;20033;-59
2022/12/12 00:34:50;;;;;;;47.13;20.53;;;0.90;99.90;;;;;;5011332;28;20034;-58
2022/12/12 00:37:16;;;;;;;47.03;21.57;;;0.90;99.90;;;;;;5010451;28;20049;-58
2022/12/12 00:39:42;;;;;;;48.33;19.90;;;0.90;99.90;;;;;;5011034;28;20032;-57
2022/12/12 00:42:08;;;;;;;49.47;21.33;;;0.90;99.90;;;;;;5011020;28;20197;-57
2022/12/12 00:44:34;;;;;;;51.50;20.80;;;1.00;99.90;;;;;;5011277;28;20121;-58
2022/12/12 00:46:59;;;;;;;45.90;19.17;;;1.00;99.90;;;;;;5010631;28;20048;-58
2022/12/12 00:49:25;;;;;;;45.23;20.83;;;1.00;99.90;;;;;;5011187;28;20045;-58
2022/12/12 00:51:51;;;;;;;44.00;19.63;;;1.00;99.90;;;;;;5010242;28;20026;-58
2022/12/12 00:54:17;;;;;;;48.97;20.27;;;1.00;99.90;;;;;;5010964;28;20062;-60
2022/12/12 00:56:42;;;;;;;47.67;18.70;;;1.00;99.90;;;;;;5010811;28;20099;-58
2022/12/12 00:59:08;;;;;;;45.83;19.33;;;1.10;99.90;;;;;;5010820;28;20028;-58
2022/12/12 01:01:34;;;;;;;48.00;20.47;;;1.10;99.90;;;;;;5010712;28;20018;-58
2022/12/12 01:04:00;;;;;;;48.80;20.03;;;1.10;99.90;;;;;;5010707;28;20066;-56
2022/12/12 01:06:27;;;;;;;45.90;18.47;;;1.00;99.90;;;;;;5023140;23;20049;-49
2022/12/12 01:08:53;;;;;;;45.10;19.53;;;1.10;99.90;;;;;;5010187;28;20026;-51
2022/12/12 01:11:20;;;;;;;43.50;19.17;;;1.00;99.90;;;;;;5010630;28;20371;-49
2022/12/12 01:13:47;;;;;;;45.30;19.70;;;1.00;99.90;;;;;;5010552;28;20113;-52
2022/12/12 01:16:13;;;;;;;47.57;20.50;;;1.10;99.90;;;;;;5010374;28;20030;-49
2022/12/12 01:18:40;;;;;;;44.63;19.33;;;1.10;99.90;;;;;;5009890;28;20434;-49
2022/12/12 01:21:12;;;;;;;45.20;19.30;;;1.00;99.90;;;;;;5009654;28;20403;-51
2022/12/12 01:23:38;;;;;;;43.33;19.30;;;1.10;99.90;;;;;;5010490;28;20038;-52
2022/12/12 01:26:07;;;;;;;47.70;21.60;;;1.00;99.90;;;;;;5010122;28;20088;-52
2022/12/12 01:28:33;;;;;;;;;;;1.00;99.90;;;;;;5010835;28;20092;-50
2022/12/12 01:30:59;;;;;;;46.00;19.63;;;1.00;99.90;;;;;;5010280;28;20342;-51
2022/12/12 01:33:25;;;;;;;47.20;19.63;;;0.90;99.90;;;;;;5010010;28;20124;-48
2022/12/12 01:35:51;;;;;;;48.10;19.83;;;0.90;99.90;;;;;;5009233;28;20030;-52
2022/12/12 01:38:17;;;;;;;44.43;19.00;;;0.90;99.90;;;;;;5009937;28;20037;-50
2022/12/12 01:40:43;;;;;;;45.20;19.40;;;0.90;99.90;;;;;;5009687;28;20148;-51
2022/12/12 01:43:12;;;;;;;44.53;19.47;;;0.90;99.90;;;;;;5010138;28;20038;-49
2022/12/12 01:45:56;;;;;;;46.30;19.67;;;0.90;99.90;;;;;;5009872;28;20038;-51
2022/12/12 01:48:35;;;;;;;49.33;19.63;;;0.90;99.90;;;;;;5009235;28;20038;-50
2022/12/12 01:51:06;;;;;;;48.90;20.08;;;1.00;99.90;;;;;;5009236;28;20026;-51
2022/12/12 01:53:33;;;;;;;46.07;19.10;;;1.00;99.90;;;;;;5010000;28;20042;-52
2022/12/12 01:56:01;;;;;;;45.20;19.50;;;0.90;99.90;;;;;;5009017;28;20105;-52
2022/12/12 01:58:29;;;;;;;48.87;19.83;;;1.00;99.90;;;;;;5009108;28;20034;-52
2022/12/12 02:00:54;;;;;;;45.53;18.43;;;0.90;99.90;;;;;;5007668;28;20046;-52
2022/12/12 02:03:20;;;;;;;52.00;19.77;;;0.90;99.90;;;;;;5009296;28;20038;-52
2022/12/12 02:05:52;;;;;;;49.23;20.53;;;0.90;99.90;;;;;;5008589;28;20100;-51
2022/12/12 02:08:20;;;;;;;44.37;19.33;;;0.90;99.90;;;;;;5009254;28;20525;-53
2022/12/12 02:10:47;;;;;;;41.58;18.45;;;0.80;99.90;;;;;;5009368;28;20030;-52
2022/12/12 02:13:16;;;;;;;46.47;19.97;;;0.70;99.90;;;;;;5009380;28;20108;-53
2022/12/12 02:16:19;;;;;;;48.73;19.97;;;0.70;99.90;;;;;;5009497;28;20030;-52
2022/12/12 02:19:43;;;;;;;45.43;19.00;;;0.60;99.90;;;;;;5008945;28;20029;-51
2022/12/12 02:22:43;;;;;;;46.13;19.60;;;0.50;99.90;;;;;;5007740;28;20556;-50
2022/12/12 02:25:31;;;;;;;44.23;18.77;;;0.50;99.90;;;;;;5009409;28;20033;-52
2022/12/12 02:28:30;;;;;;;46.43;19.50;;;0.40;99.90;;;;;;5007442;28;20034;-49
2022/12/12 02:31:22;;;;;;;45.35;19.13;;;0.40;99.90;;;;;;5009344;28;20366;-50
2022/12/12 02:33:56;;;;;;;46.43;19.40;;;0.30;99.90;;;;;;5008804;28;20045;-48
2022/12/12 02:36:50;;;;;;;42.87;18.87;;;0.30;99.90;;;;;;5008211;28;20032;-51
2022/12/12 02:39:26;;;;;;;43.67;18.27;;;0.30;99.90;;;;;;5008734;28;20022;-48
2022/12/12 02:42:28;;;;;;;46.67;19.07;;;0.30;99.90;;;;;;5009024;28;20026;-48
2022/12/12 02:44:58;;;;;;;46.57;18.77;;;0.30;99.90;;;;;;5008079;28;20049;-51
2022/12/12 02:47:34;;;;;;;46.23;19.27;;;0.30;99.90;;;;;;5008789;28;20033;-51
2022/12/12 02:50:12;;;;;;;44.87;18.20;;;0.30;99.90;;;;;;5008550;28;20061;-49
2022/12/12 02:52:37;;;;;;;43.00;18.40;;;0.30;99.90;;;;;;5009194;28;20100;-52
2022/12/12 02:55:04;;;;;;;45.07;19.00;;;0.30;99.90;;;;;;5008772;28;20026;-47
2022/12/12 02:57:31;;;;;;;48.33;20.17;;;0.30;99.90;;;;;;5008841;28;20030;-50
2022/12/12 02:59:59;;;;;;;44.77;18.73;;;0.30;99.90;;;;;;5008346;28;20133;-50
2022/12/12 03:02:51;;;;;;;47.23;19.77;;;0.30;99.90;;;;;;5008773;28;20391;-48
2022/12/12 03:08:50;;;;;;;44.47;17.63;;;0.30;99.90;;;;;;5008875;28;20053;-50
2022/12/12 03:11:45;;;;;;;42.57;18.03;;;0.30;99.90;;;;;;5008917;28;20048;-49
2022/12/12 03:14:31;;;;;;;47.53;19.33;;;0.30;99.90;;;;;;5009012;28;20030;-49
2022/12/12 03:17:09;;;;;;;46.87;19.67;;;0.30;99.90;;;;;;5008378;28;20049;-50
2022/12/12 03:19:47;;;;;;;41.13;17.73;;;0.30;99.90;;;;;;5008882;28;20026;-49
2022/12/12 03:22:28;;;;;;;45.00;18.80;;;0.30;99.90;;;;;;5007968;28;20058;-50
2022/12/12 03:25:04;;;;;;;46.33;19.50;;;0.40;99.90;;;;;;5009013;28;20122;-52
2022/12/12 03:27:40;;;;;;;45.17;18.37;;;0.40;99.90;;;;;;5008676;28;20034;-52
2022/12/12 03:30:15;;;;;;;42.30;18.57;;;0.40;99.90;;;;;;5008601;28;20506;-49
2022/12/12 03:32:47;;;;;;;47.57;19.17;;;0.40;99.90;;;;;;5008432;28;20083;-52
2022/12/12 03:35:23;;;;;;;42.70;18.57;;;0.40;99.90;;;;;;5008039;28;20053;-51
2022/12/12 03:37:54;;;;;;;45.13;18.17;;;0.40;99.90;;;;;;5008567;28;20030;-49
2022/12/12 03:40:48;;;;;;;44.83;18.67;;;0.40;99.90;;;;;;5008397;28;20026;-49
2022/12/12 03:43:18;;;;;;;42.00;17.17;;;0.40;99.90;;;;;;5007696;28;20049;-52
2022/12/12 03:46:13;;;;;;;42.47;18.50;;;0.40;99.90;;;;;;5008008;28;20109;-50
2022/12/12 03:48:49;;;;;;;40.93;18.63;;;0.40;99.90;;;;;;5008508;28;20124;-52
2022/12/12 03:51:25;;;;;;;45.97;19.37;;;0.40;99.90;;;;;;5011154;28;20116;-50
2022/12/12 03:53:58;;;;;;;45.80;18.87;;;0.40;99.90;;;;;;5012000;28;20053;-49
2022/12/12 03:56:44;;;;;;;41.80;17.63;;;0.40;99.90;;;;;;5011770;28;20048;-52
2022/12/12 03:59:15;;;;;;;42.83;19.23;;;0.50;99.90;;;;;;5011824;28;20080;-52
2022/12/12 04:01:54;;;;;;;42.50;18.63;;;0.50;99.90;;;;;;5009950;28;20493;-47
2022/12/12 04:04:30;;;;;;;40.83;17.08;;;0.50;99.90;;;;;;5011844;28;20040;-52
2022/12/12 04:07:10;;;;;;;41.13;18.27;;;0.50;99.90;;;;;;5010697;28;20034;-51
2022/12/12 04:13:02;;;;;;;40.30;18.00;;;0.50;99.90;;;;;;5011597;28;20033;-48
2022/12/12 04:15:36;;;;;;;39.30;18.23;;;0.50;99.90;;;;;;5011673;28;20033;-51
2022/12/12 04:18:24;;;;;;;47.20;19.23;;;0.50;99.90;;;;;;5011310;28;20052;-52
2022/12/12 04:24:00;;;;;;;44.07;18.63;;;0.50;99.90;;;;;;5011130;28;20109;-53
2022/12/12 04:26:40;;;;;;;44.10;18.40;;;0.40;99.90;;;;;;5011446;28;20117;-54
2022/12/12 04:29:11;;;;;;;44.57;19.90;;;0.40;99.90;;;;;;5011489;28;20439;-49
2022/12/12 04:31:57;;;;;;;44.57;18.57;;;0.40;99.90;;;;;;5011224;28;20034;-54
2022/12/12 04:34:35;;;;;;;47.53;19.20;;;0.40;99.90;;;;;;5011458;28;20139;-50
2022/12/12 04:37:03;;;;;;;41.23;18.17;;;0.30;99.90;;;;;;5010270;28;20022;-52
2022/12/12 04:39:31;;;;;;;36.33;14.60;;;0.40;99.90;;;;;;5011112;28;20429;-51
2022/12/12 04:41:59;;;;;;;42.40;18.20;;;0.40;99.90;;;;;;5010886;28;20521;-53
2022/12/12 04:44:27;;;;;;;40.77;18.53;;;0.30;99.90;;;;;;5011236;28;20030;-52
2022/12/12 04:46:54;;;;;;;43.63;18.93;;;0.30;99.90;;;;;;5009941;28;20229;-51
2022/12/12 04:49:26;;;;;;;44.23;18.47;;;0.30;99.90;;;;;;5010623;28;20113;-54
2022/12/12 04:51:57;;;;;;;46.10;18.73;;;0.30;99.90;;;;;;5009579;28;20502;-53
2022/12/12 04:54:45;;;;;;;42.97;18.30;;;0.30;99.90;;;;;;5010567;28;20096;-50
2022/12/12 04:57:16;;;;;;;42.33;18.17;;;0.20;99.90;;;;;;5010185;28;20153;-52
2022/12/12 04:59:41;;;;;;;41.93;18.80;;;0.20;99.90;;;;;;5010782;28;20449;-53
2022/12/12 05:02:44;;;;;;;44.43;18.93;;;0.20;99.90;;;;;;5009384;28;20033;-53
2022/12/12 05:05:17;;;;;;;44.57;19.10;;;0.20;99.90;;;;;;5009932;28;20053;-51
2022/12/12 05:07:49;;;;;;;45.23;19.57;;;0.10;99.90;;;;;;5010711;28;20045;-52
2022/12/12 05:10:17;;;;;;;43.67;18.87;;;0.00;99.90;;;;;;5010599;28;20026;-53
2022/12/12 05:12:49;;;;;;;44.50;19.27;;;0.00;99.90;;;;;;5010646;28;20077;-53
2022/12/12 05:15:18;;;;;;;42.37;19.47;;;-0.10;99.90;;;;;;5010719;28;20631;-53
2022/12/12 05:17:46;;;;;;;49.63;20.23;;;-0.10;99.90;;;;;;5010136;28;20030;-53
2022/12/12 05:20:13;;;;;;;45.30;19.63;;;-0.10;99.90;;;;;;5009516;28;20034;-53
2022/12/12 05:22:39;;;;;;;45.33;19.10;;;-0.20;99.90;;;;;;5010302;28;20119;-51
2022/12/12 05:25:05;;;;;;;46.93;19.83;;;-0.20;99.90;;;;;;5009797;28;20081;-52
2022/12/12 05:27:31;;;;;;;47.17;20.27;;;-0.20;99.90;;;;;;5009720;28;20407;-52
2022/12/12 05:29:57;;;;;;;42.50;18.07;;;-0.20;99.90;;;;;;5009939;28;20120;-49
2022/12/12 05:32:23;;;;;;;43.43;19.70;;;-0.20;99.90;;;;;;5009817;28;20065;-53
2022/12/12 05:34:48;;;;;;;44.17;18.57;;;-0.30;99.90;;;;;;5010128;28;20073;-52
2022/12/12 05:37:14;;;;;;;47.73;21.10;;;-0.30;99.90;;;;;;5009019;28;20088;-52
2022/12/12 05:39:40;;;;;;;52.10;21.17;;;-0.30;99.90;;;;;;5009754;28;20454;-52
2022/12/12 05:42:05;;;;;;;49.90;20.47;;;-0.40;99.90;;;;;;5009767;28;20040;-49
2022/12/12 05:44:31;;;;;;;46.43;20.10;;;-0.40;99.90;;;;;;5010450;28;20038;-52
2022/12/12 05:46:57;;;;;;;48.50;21.63;;;-0.50;99.90;;;;;;5009096;28;20124;-51
2022/12/12 05:49:22;;;;;;;49.40;20.80;;;-0.60;99.90;;;;;;5009762;28;20037;-49
2022/12/12 05:51:48;;;;;;;49.93;20.83;;;-0.60;99.90;;;;;;5009110;28;20418;-48
2022/12/12 05:54:14;;;;;;;48.30;20.63;;;-0.60;99.90;;;;;;5009724;28;20358;-50
2022/12/12 05:56:40;;;;;;;53.13;21.07;;;-0.60;99.90;;;;;;5009561;28;20061;-48
2022/12/12 05:59:05;;;;;;;48.50;20.77;;;-0.60;99.90;;;;;;5009923;28;20052;-51
2022/12/12 06:01:31;;;;;;;49.17;20.00;;;-0.60;99.90;;;;;;5009679;28;20022;-51
2022/12/12 06:03:57;;;;;;;49.80;20.43;;;-0.60;99.90;;;;;;5009894;28;20030;-48
2022/12/12 06:06:23;;;;;;;44.13;19.63;;;-0.60;99.90;;;;;;5008486;28;20096;-49
2022/12/12 06:08:50;;;;;;;54.43;21.73;;;-0.70;99.90;;;;;;5009436;28;20116;-50
2022/12/12 06:11:16;;;;;;;55.10;22.10;;;-0.80;99.90;;;;;;5009588;28;20397;-50
2022/12/12 06:13:42;;;;;;;54.80;21.70;;;-0.80;99.90;;;;;;5009578;28;20368;-50
2022/12/12 06:16:09;;;;;;;51.00;20.70;;;-0.80;99.90;;;;;;5009682;28;20029;-47
2022/12/12 06:18:36;;;;;;;52.77;22.13;;;-0.80;99.90;;;;;;5008853;28;20112;-49
2022/12/12 06:21:04;;;;;;;48.23;21.70;;;-0.70;99.90;;;;;;5008820;28;20018;-48
2022/12/12 06:23:30;;;;;;;53.13;21.60;;;-0.70;99.90;;;;;;5009403;28;20072;-48
2022/12/12 06:25:55;;;;;;;64.10;24.20;;;-0.70;99.90;;;;;;5009633;28;20060;-49
2022/12/12 06:28:21;;;;;;;50.23;21.17;;;-0.70;99.90;;;;;;5009230;28;20567;-47
2022/12/12 06:30:47;;;;;;;51.97;20.47;;;-0.70;99.90;;;;;;5009299;28;20034;-55
2022/12/12 06:33:12;;;;;;;55.27;22.67;;;-0.70;99.90;;;;;;5009225;28;20038;-47
2022/12/12 06:35:38;;;;;;;58.73;22.30;;;-0.60;99.90;;;;;;5008522;28;20091;-50
2022/12/12 06:38:04;;;;;;;50.03;21.57;;;-0.60;99.90;;;;;;5009168;28;20494;-48
2022/12/12 06:40:29;;;;;;;49.53;20.77;;;-0.60;99.90;;;;;;5009047;28;20073;-48
2022/12/12 06:42:56;;;;;;;54.07;21.17;;;-0.60;99.90;;;;;;5009367;28;20078;-50
2022/12/12 06:45:21;;;;;;;50.53;20.20;;;-0.60;99.90;;;;;;5009122;28;20025;-47
2022/12/12 06:47:49;;;;;;;48.20;20.77;;;-0.70;99.90;;;;;;5008524;28;20065;-48
2022/12/12 06:50:14;;;;;;;43.33;19.07;;;-0.70;99.90;;;;;;5008002;28;20433;-48
2022/12/12 06:52:40;;;;;;;53.67;20.67;;;-0.60;99.90;;;;;;5008836;28;20249;-48
2022/12/12 06:55:06;;;;;;;50.53;21.20;;;-0.60;99.90;;;;;;5008827;28;20034;-54
2022/12/12 06:57:32;;;;;;;51.83;20.17;;;-0.60;99.90;;;;;;5009026;28;20046;-53
2022/12/12 06:59:58;;;;;;;46.17;19.73;;;-0.50;99.90;;;;;;5008659;28;20131;-54
2022/12/12 07:02:23;;;;;;;47.73;19.77;;;-0.50;99.90;;;;;;5008383;28;20033;-48
2022/12/12 07:04:49;;;;;;;48.33;20.50;;;-0.50;99.90;;;;;;5008660;28;20113;-51
2022/12/12 07:07:15;;;;;;;45.73;18.90;;;-0.40;99.90;;;;;;5007632;28;20502;-48
2022/12/12 07:09:41;;;;;;;42.67;19.23;;;-0.50;99.90;;;;;;5008889;28;20049;-49
2022/12/12 07:12:06;;;;;;;54.07;20.77;;;-0.50;99.90;;;;;;5008956;28;20045;-49
2022/12/12 07:14:32;;;;;;;51.90;20.07;;;-0.60;99.90;;;;;;5009018;28;20030;-48
2022/12/12 07:16:58;;;;;;;50.83;20.23;;;-0.60;99.90;;;;;;5007933;28;20364;-48
2022/12/12 07:19:24;;;;;;;48.77;20.43;;;-0.60;99.90;;;;;;5008754;28;20029;-51
2022/12/12 07:21:50;;;;;;;47.30;20.27;;;-0.60;99.90;;;;;;5007187;28;20453;-49
2022/12/12 07:24:15;;;;;;;48.37;20.80;;;-0.70;99.90;;;;;;5010698;28;20107;-42
2022/12/12 07:26:41;;;;;;;46.77;19.60;;;-0.70;99.90;;;;;;5012045;28;20100;-42
2022/12/12 07:29:07;;;;;;;54.43;21.43;;;-0.80;99.90;;;;;;5024595;28;20197;-41
2022/12/12 07:31:33;;;;;;;48.20;18.90;;;-0.80;99.90;;;;;;5031434;28;20393;-41
2022/12/12 07:34:00;;;;;;;49.53;20.40;;;-0.80;99.90;;;;;;5031541;28;20068;-52
2022/12/12 07:36:25;;;;;;;46.63;19.90;;;-0.90;99.90;;;;;;5030109;28;20049;-51
2022/12/12 07:38:51;;;;;;;50.33;20.43;;;-0.80;99.90;;;;;;5031725;28;20025;-49
2022/12/12 07:41:19;;;;;;;47.57;20.67;;;-0.80;99.90;;;;;;5031774;28;20037;-50
2022/12/12 07:43:47;;;;;;;49.55;19.83;;;-0.80;99.90;;;;;;5030206;28;20546;-52
2022/12/12 07:46:18;;;;;;;47.63;20.37;;;-0.80;99.90;;;;;;5021147;28;20052;-52
2022/12/12 07:48:44;;;;;;;51.60;20.97;;;-0.80;99.90;;;;;;5008799;28;20026;-52
2022/12/12 07:51:11;;;;;;;52.87;22.33;;;-0.90;99.90;;;;;;5011426;28;20026;-53
2022/12/12 07:53:36;;;;;;;52.50;20.87;;;-0.90;99.90;;;;;;5012118;28;20180;-52
2022/12/12 07:56:07;;;;;;;48.00;20.97;;;-0.90;99.90;;;;;;5012138;28;20112;-52
2022/12/12 07:58:34;;;;;;;52.23;21.33;;;-0.90;99.90;;;;;;5010969;28;20022;-52
2022/12/12 08:01:00;;;;;;;50.83;20.20;;;-0.90;99.90;;;;;;5011739;28;20133;-51
2022/12/12 08:03:26;;;;;;;49.93;19.83;;;-0.80;99.90;;;;;;5010241;28;20030;-52
2022/12/12 08:05:51;;;;;;;51.43;20.97;;;-0.90;99.90;;;;;;5010202;28;20045;-51
2022/12/12 08:08:17;;;;;;;52.47;20.67;;;-0.90;99.90;;;;;;5011515;28;20082;-53
2022/12/12 08:10:43;;;;;;;51.20;21.30;;;-0.90;99.90;;;;;;5010740;28;20030;-52
2022/12/12 08:13:09;;;;;;;48.63;20.93;;;-1.00;99.90;;;;;;5011438;28;20402;-54
2022/12/12 08:15:34;;;;;;;49.60;20.33;;;-1.00;99.90;;;;;;5011112;28;20036;-47
2022/12/12 08:18:00;;;;;;;59.53;22.23;;;-1.00;99.90;;;;;;5010685;28;20030;-48
2022/12/12 08:20:26;;;;;;;49.80;19.87;;;-1.00;99.90;;;;;;5010371;28;20826;-53
2022/12/12 08:22:52;;;;;;;47.60;19.93;;;-1.00;99.90;;;;;;5011518;28;20084;-53
2022/12/12 08:25:17;;;;;;;51.20;21.23;;;-1.00;99.90;;;;;;5011180;28;20030;-51
2022/12/12 08:27:43;;;;;;;50.10;20.00;;;-1.10;99.90;;;;;;5011417;28;20041;-51
2022/12/12 08:30:09;;;;;;;44.90;20.00;;;-1.10;99.90;;;;;;5011012;28;20044;-50
2022/12/12 08:32:35;;;;;;;46.60;19.73;;;-1.00;99.90;;;;;;5010445;28;20034;-48
2022/12/12 08:35:01;;;;;;;47.97;21.10;;;-1.00;99.90;;;;;;5009650;28;20065;-51
2022/12/12 08:37:27;;;;;;;43.67;19.63;;;-0.90;99.90;;;;;;5010622;28;20109;-52
2022/12/12 08:39:53;;;;;;;48.50;20.63;;;-0.90;99.90;;;;;;5010791;28;20463;-51
2022/12/12 08:42:18;;;;;;;49.30;20.83;;;-0.90;99.90;;;;;;5010750;28;20038;-52
2022/12/12 08:44:44;;;;;;;51.50;20.33;;;-0.90;99.90;;;;;;5011015;28;20034;-52
2022/12/12 08:47:10;;;;;;;43.63;19.37;;;-0.90;99.90;;;;;;5010061;28;20598;-47
2022/12/12 08:49:36;;;;;;;47.37;20.20;;;-0.90;99.90;;;;;;5010644;28;20034;-53
2022/12/12 08:52:04;;;;;;;48.13;18.90;;;-0.80;99.90;;;;;;5009625;28;20285;-50
2022/12/12 08:54:30;;;;;;;43.10;19.30;;;-0.80;99.90;;;;;;5012588;28;20100;-53
2022/12/12 08:56:56;;;;;;;41.90;18.60;;;-0.70;99.90;;;;;;5010498;28;20034;-53
2022/12/12 08:59:22;;;;;;;47.00;19.20;;;-0.70;99.90;;;;;;5030201;28;20450;-53
2022/12/12 09:01:48;;;;;;;48.93;20.50;;;-0.60;99.90;;;;;;5024090;28;20084;-49
2022/12/12 09:04:13;;;;;;;47.83;20.67;;;-0.50;99.90;;;;;;5010835;28;20399;-52
2022/12/12 09:06:39;;;;;;;45.33;19.17;;;-0.40;99.90;;;;;;5009894;28;20061;-51
2022/12/12 09:09:05;;;;;;;45.70;19.70;;;-0.30;99.90;;;;;;5008764;28;20541;-52
2022/12/12 09:11:31;;;;;;;48.23;19.70;;;-0.20;99.90;;;;;;5023678;28;20056;-53
2022/12/12 09:13:56;;;;;;;43.10;19.43;;;-0.20;99.90;;;;;;5028447;28;20389;-52
2022/12/12 09:16:25;;;;;;;44.53;19.57;;;-0.20;99.90;;;;;;5028980;28;20079;-52
2022/12/12 09:18:51;;;;;;;48.20;20.97;;;-0.20;99.90;;;;;;5015484;28;20053;-48
2022/12/12 09:21:17;;;;;;;44.67;20.87;;;-0.20;99.90;;;;;;5009297;28;20022;-53
2022/12/12 09:23:43;;;;;;;45.37;20.17;;;-0.10;99.90;;;;;;5010015;28;20029;-53
2022/12/12 09:26:09;;;;;;;41.37;18.43;;;-0.10;99.90;;;;;;5009948;28;20406;-51
2022/12/12 09:28:35;;;;;;;37.87;17.57;;;0.00;99.90;;;;;;5024075;28;20083;-55
2022/12/12 09:31:04;;;;;;;40.90;18.23;;;0.20;99.90;;;;;;5029182;28;20128;-50
2022/12/12 09:33:30;;;;;;;37.53;18.52;;;0.40;99.90;;;;;;5023636;28;20034;-52
2022/12/12 09:35:58;;;;;;;40.97;17.90;;;0.50;99.90;;;;;;5009319;28;20041;-53
2022/12/12 09:38:24;;;;;;;34.57;16.40;;;0.70;99.90;;;;;;5008651;28;20379;-54
2022/12/12 09:40:59;;;;;;;37.53;15.10;;;0.80;99.90;;;;;;5008679;28;20034;-53
2022/12/12 09:43:36;;;;;;;33.70;15.03;;;0.90;99.90;;;;;;5009049;28;20037;-53
2022/12/12 09:46:04;;;;;;;27.43;14.47;;;1.10;99.90;;;;;;5008877;28;20033;-52
2022/12/12 09:48:50;;;;;;;35.33;16.20;;;1.20;99.90;;;;;;5008640;28;20042;-54
2022/12/12 09:51:15;;;;;;;30.33;15.37;;;1.40;99.90;;;;;;5009019;28;20394;-53
2022/12/12 09:53:45;;;;;;;29.20;14.17;;;1.40;99.90;;;;;;5008977;28;20038;-51
2022/12/12 09:56:11;;;;;;;;;;;1.50;99.90;;;;;;5009969;28;20471;-51
2022/12/12 09:58:43;;;;;;;29.90;14.10;;;1.60;99.90;;;;;;5009377;28;19921;-54
2022/12/12 10:01:12;;;;;;;30.17;14.10;;;1.80;99.90;;;;;;5011891;28;20399;-52
2022/12/12 10:03:59;;;;;;;29.10;14.03;;;2.00;99.90;;;;;;5028734;28;20176;-54
2022/12/12 10:06:30;;;;;;;25.77;12.73;;;2.40;99.90;;;;;;5027784;28;20033;-52
2022/12/12 10:09:44;;;;;;;23.43;12.27;;;2.80;99.90;;;;;;5028756;28;20029;-51
2022/12/12 10:12:13;;;;;;;23.93;12.77;;;3.40;99.90;;;;;;5038263;28;20092;-54
2022/12/12 10:14:46;;;;;;;25.47;13.30;;;3.60;99.90;;;;;;5028540;28;20034;-52
2022/12/12 10:17:36;;;;;;;22.40;12.17;;;4.00;99.90;;;;;;5028282;28;20025;-51
2022/12/12 10:20:27;;;;;;;24.77;13.37;;;4.40;99.90;;;;;;5027918;28;20029;-52
2022/12/12 10:23:20;;;;;;;23.80;12.20;;;4.40;99.90;;;;;;5028908;28;20055;-52
2022/12/12 10:25:56;;;;;;;23.40;12.90;;;4.80;99.90;;;;;;5028813;28;20055;-54
2022/12/12 10:28:24;;;;;;;24.67;13.17;;;5.00;99.90;;;;;;5028693;28;20504;-52
2022/12/12 10:31:10;;;;;;;22.08;12.90;;;5.20;99.90;;;;;;5028469;28;20029;-48
2022/12/12 10:34:03;;;;;;;19.67;11.60;;;5.10;99.90;;;;;;5028240;28;20440;-49
2022/12/12 10:36:37;;;;;;;23.77;13.23;;;5.20;99.90;;;;;;5027818;28;20378;-48
2022/12/12 10:39:34;;;;;;;23.47;11.60;;;5.30;99.90;;;;;;5028432;28;20026;-53
2022/12/12 10:42:02;;;;;;;26.50;13.07;;;5.50;99.90;;;;;;5028116;28;20034;-52
2022/12/12 10:45:05;;;;;;;22.80;12.40;;;5.10;99.90;;;;;;5028848;28;20475;-51
2022/12/12 10:47:33;;;;;;;25.97;13.17;;;5.30;99.90;;;;;;5027806;28;20041;-53
2022/12/12 10:50:08;;;;;;;21.10;12.37;;;5.60;99.90;;;;;;5028185;28;20026;-54
2022/12/12 10:52:34;;;;;;;18.23;10.87;;;5.90;99.90;;;;;;5028996;28;20359;-54
2022/12/12 10:55:02;;;;;;;20.73;11.23;;;5.80;99.90;;;;;;5028508;28;20037;-53
2022/12/12 10:57:34;;;;;;;23.92;12.52;;;6.00;99.90;;;;;;5028455;28;20458;-50
2022/12/12 11:00:14;;;;;;;20.43;11.57;;;6.10;99.90;;;;;;5030834;28;20086;-54
2022/12/12 11:02:42;;;;;;;21.10;11.80;;;5.90;99.90;;;;;;5017631;28;20029;-54
2022/12/12 11:05:23;;;;;;;22.00;12.10;;;5.80;99.90;;;;;;5012075;28;20038;-52
2022/12/12 11:08:19;;;;;;;21.43;11.40;;;5.60;99.90;;;;;;5012604;28;20034;-54
2022/12/12 11:11:02;;;;;;;22.30;11.53;;;5.40;99.90;;;;;;5013669;28;20045;-52
2022/12/12 11:13:29;;;;;;;22.60;11.70;;;5.30;99.90;;;;;;5013006;28;20084;-54
2022/12/12 11:16:12;;;;;;;19.57;11.73;;;5.30;99.90;;;;;;5012378;28;20092;-53
2022/12/12 11:18:38;;;;;;;24.40;12.10;;;5.00;99.90;;;;;;5011795;28;20475;-48
2022/12/12 11:21:09;;;;;;;23.63;11.40;;;4.90;99.90;;;;;;5011838;28;20030;-52
2022/12/12 11:23:46;;;;;;;23.53;11.73;;;4.80;99.90;;;;;;5012394;28;20050;-51
2022/12/12 11:26:18;;;;;;;22.17;11.77;;;4.30;99.90;;;;;;5012022;28;20112;-51
2022/12/12 11:28:51;;;;;;;23.30;11.60;;;3.90;99.90;;;;;;5012028;28;20061;-50
2022/12/12 11:31:21;;;;;;;21.40;11.43;;;4.00;99.90;;;;;;5012236;28;20034;-49
2022/12/12 11:33:54;;;;;;;26.47;11.80;;;4.10;99.90;;;;;;5012062;28;20060;-47
2022/12/12 11:36:26;;;;;;;21.37;11.73;;;4.10;99.90;;;;;;5011072;28;20108;-52
2022/12/12 11:38:58;;;;;;;20.07;10.80;;;3.90;99.90;;;;;;5011674;28;20041;-48
2022/12/12 11:41:23;;;;;;;25.33;12.63;;;4.20;99.90;;;;;;5012284;28;20026;-51
2022/12/12 11:43:49;;;;;;;22.23;11.70;;;4.30;99.90;;;;;;5012618;28;20490;-50
2022/12/12 11:46:15;;;;;;;25.43;10.97;;;4.20;99.90;;;;;;5011751;28;20033;-50
2022/12/12 11:48:43;;;;;;;21.77;10.90;;;4.30;99.90;;;;;;5010996;28;20069;-49
2022/12/12 11:51:09;;;;;;;20.80;11.27;;;4.50;99.90;;;;;;5011446;28;20041;-49
2022/12/12 11:53:43;;;;;;;21.30;11.57;;;4.50;99.90;;;;;;5012231;28;20601;-53
2022/12/12 11:56:37;;;;;;;21.20;10.87;;;4.70;99.90;;;;;;5011811;28;20076;-53
2022/12/12 11:59:15;;;;;;;21.60;10.40;;;4.70;99.90;;;;;;5011474;28;20037;-50
2022/12/12 12:01:59;;;;;;;20.33;9.87;;;4.70;99.90;;;;;;5017903;28;20031;-51
2022/12/12 12:04:42;;;;;;;21.00;10.37;;;4.60;99.90;;;;;;5031674;28;20034;-51
2022/12/12 12:07:32;;;;;;;23.17;10.47;;;4.50;99.90;;;;;;5030303;28;20045;-52
2022/12/12 12:10:28;;;;;;;20.87;10.73;;;4.20;99.90;;;;;;5031116;28;20033;-53
2022/12/12 12:12:56;;;;;;;19.90;9.60;;;4.20;99.90;;;;;;5031612;28;20252;-51
2022/12/12 12:15:42;;;;;;;21.90;11.20;;;4.40;99.90;;;;;;5030979;28;20041;-54
2022/12/12 12:18:29;;;;;;;20.73;9.40;;;4.30;99.90;;;;;;5030638;28;20116;-50
2022/12/12 12:21:14;;;;;;;25.10;10.50;;;4.20;99.90;;;;;;5030504;28;20371;-51
2022/12/12 12:24:01;;;;;;;21.10;10.43;;;4.40;99.90;;;;;;5031779;28;20415;-51
2022/12/12 12:26:49;;;;;;;21.77;10.67;;;4.50;99.90;;;;;;5031343;28;20029;-49
2022/12/12 12:29:49;;;;;;;18.27;9.57;;;4.90;99.90;;;;;;5030866;28;20029;-52
2022/12/12 12:32:45;;;;;;;21.17;9.60;;;5.10;99.90;;;;;;5030627;28;20037;-52
2022/12/12 12:35:31;;;;;;;20.23;9.77;;;5.30;99.90;;;;;;5030071;28;20045;-53
2022/12/12 12:38:15;;;;;;;22.43;9.50;;;5.60;99.90;;;;;;5030890;28;20037;-54
2022/12/12 12:41:03;;;;;;;19.40;9.60;;;5.80;99.90;;;;;;5030139;28;20049;-51
2022/12/12 12:43:41;;;;;;;18.83;9.07;;;5.60;99.90;;;;;;5029376;28;20370;-52
2022/12/12 12:46:14;;;;;;;19.10;9.37;;;5.70;99.90;;;;;;5030614;28;20114;-52
2022/12/12 12:48:45;;;;;;;20.17;8.93;;;6.10;99.50;;;;;;5029693;28;20045;-52
2022/12/12 12:51:19;;;;;;;19.83;9.80;;;6.30;98.70;;;;;;5029863;28;20056;-53
2022/12/12 12:54:04;;;;;;;18.50;9.27;;;6.50;98.60;;;;;;5030806;28;20498;-54
2022/12/12 12:56:41;;;;;;;22.37;9.97;;;6.40;97.70;;;;;;5030680;28;20030;-54
2022/12/12 12:59:32;;;;;;;20.27;9.03;;;6.00;99.10;;;;;;5029665;28;20036;-53
2022/12/12 13:02:03;;;;;;;19.00;9.00;;;6.10;99.30;;;;;;5021076;28;20149;-51
2022/12/12 13:04:37;;;;;;;18.27;10.20;;;6.10;99.30;;;;;;5010452;28;20435;-50
2022/12/12 13:07:25;;;;;;;20.23;10.27;;;6.20;98.20;;;;;;5019568;23;20479;-51
2022/12/12 13:10:04;;;;;;;21.73;10.23;;;6.20;98.40;;;;;;5007871;28;20109;-50